sensor_id;sensor_type;location;lat;lon;timestamp;P1;durP1;ratioP1;P2;durP2;ratioP2
3070;SDS011;1546;47.208;9.038;2022-09-28T00:01:25;3.58;;;2.20;;
3070;SDS011;1546;47.208;9.038;2022-09-28T00:03:53;3.30;;;1.90;;
3070;SDS011;1546;47.208;9.038;2022-09-28T00:06:23;6.13;;;2.58;;
3070;SDS011;1546;47.208;9.038;2022-09-28T00:08:51;3.28;;;1.70;;
3070;SDS011;1546;47.208;9.038;2022-09-28T00:11:20;4.28;;;1.70;;
3070;SDS011;1546;47.208;9.038;2022-09-28T00:13:50;4.03;;;2.20;;
3070;SDS011;1546;47.208;9.038;2022-09-28T00:16:20;4.25;;;1.73;;
3070;SDS011;1546;47.208;9.038;2022-09-28T00:18:48;3.45;;;1.95;;
3070;SDS011;1546;47.208;9.038;2022-09-28T00:21:18;3.40;;;1.70;;
3070;SDS011;1546;47.208;9.038;2022-09-28T00:23:46;4.18;;;1.92;;
3070;SDS011;1546;47.208;9.038;2022-09-28T00:26:35;6.30;;;2.70;;
3070;SDS011;1546;47.208;9.038;2022-09-28T00:29:02;4.45;;;2.35;;
3070;SDS011;1546;47.208;9.038;2022-09-28T00:31:30;4.47;;;2.22;;
3070;SDS011;1546;47.208;9.038;2022-09-28T00:33:58;3.80;;;1.70;;
3070;SDS011;1546;47.208;9.038;2022-09-28T00:36:26;4.15;;;1.70;;
3070;SDS011;1546;47.208;9.038;2022-09-28T00:38:55;5.18;;;2.10;;
3070;SDS011;1546;47.208;9.038;2022-09-28T00:41:22;3.35;;;1.70;;
3070;SDS011;1546;47.208;9.038;2022-09-28T00:43:51;4.60;;;2.22;;
3070;SDS011;1546;47.208;9.038;2022-09-28T00:46:20;4.28;;;1.85;;
3070;SDS011;1546;47.208;9.038;2022-09-28T00:48:53;3.58;;;1.40;;
3070;SDS011;1546;47.208;9.038;2022-09-28T00:51:24;3.83;;;1.60;;
3070;SDS011;1546;47.208;9.038;2022-09-28T00:53:52;3.85;;;2.30;;
3070;SDS011;1546;47.208;9.038;2022-09-28T00:56:20;3.00;;;1.83;;
3070;SDS011;1546;47.208;9.038;2022-09-28T00:58:53;3.97;;;2.28;;
3070;SDS011;1546;47.208;9.038;2022-09-28T01:01:21;3.33;;;2.03;;
3070;SDS011;1546;47.208;9.038;2022-09-28T01:03:48;3.50;;;2.50;;
3070;SDS011;1546;47.208;9.038;2022-09-28T01:06:16;3.33;;;2.33;;
3070;SDS011;1546;47.208;9.038;2022-09-28T01:08:45;4.95;;;2.30;;
3070;SDS011;1546;47.208;9.038;2022-09-28T01:11:15;4.32;;;2.58;;
3070;SDS011;1546;47.208;9.038;2022-09-28T01:13:42;4.10;;;2.75;;
3070;SDS011;1546;47.208;9.038;2022-09-28T01:16:13;3.75;;;2.40;;
3070;SDS011;1546;47.208;9.038;2022-09-28T01:18:51;5.18;;;2.53;;
3070;SDS011;1546;47.208;9.038;2022-09-28T01:21:26;4.65;;;2.72;;
3070;SDS011;1546;47.208;9.038;2022-09-28T01:24:05;4.40;;;2.20;;
3070;SDS011;1546;47.208;9.038;2022-09-28T01:26:42;6.40;;;4.05;;
3070;SDS011;1546;47.208;9.038;2022-09-28T01:29:17;4.78;;;2.30;;
3070;SDS011;1546;47.208;9.038;2022-09-28T01:31:51;5.72;;;2.08;;
3070;SDS011;1546;47.208;9.038;2022-09-28T01:34:26;5.68;;;1.98;;
3070;SDS011;1546;47.208;9.038;2022-09-28T01:36:56;3.50;;;2.00;;
3070;SDS011;1546;47.208;9.038;2022-09-28T01:39:27;3.35;;;1.90;;
3070;SDS011;1546;47.208;9.038;2022-09-28T01:42:02;3.30;;;1.40;;
3070;SDS011;1546;47.208;9.038;2022-09-28T01:44:32;2.67;;;1.15;;
3070;SDS011;1546;47.208;9.038;2022-09-28T01:47:05;4.45;;;1.00;;
3070;SDS011;1546;47.208;9.038;2022-09-28T01:49:35;2.97;;;1.10;;
3070;SDS011;1546;47.208;9.038;2022-09-28T01:52:06;3.45;;;0.90;;
3070;SDS011;1546;47.208;9.038;2022-09-28T01:54:42;2.75;;;1.00;;
3070;SDS011;1546;47.208;9.038;2022-09-28T01:57:14;2.70;;;0.90;;
3070;SDS011;1546;47.208;9.038;2022-09-28T01:59:47;4.20;;;1.60;;
3070;SDS011;1546;47.208;9.038;2022-09-28T02:02:21;4.13;;;1.70;;
3070;SDS011;1546;47.208;9.038;2022-09-28T02:04:54;4.00;;;1.10;;
3070;SDS011;1546;47.208;9.038;2022-09-28T02:07:28;3.20;;;1.58;;
3070;SDS011;1546;47.208;9.038;2022-09-28T02:10:02;3.60;;;1.95;;
3070;SDS011;1546;47.208;9.038;2022-09-28T02:12:35;4.90;;;2.00;;
3070;SDS011;1546;47.208;9.038;2022-09-28T02:15:08;3.72;;;1.73;;
3070;SDS011;1546;47.208;9.038;2022-09-28T02:17:37;2.63;;;1.10;;
3070;SDS011;1546;47.208;9.038;2022-09-28T02:20:05;2.90;;;1.13;;
3070;SDS011;1546;47.208;9.038;2022-09-28T02:22:35;3.08;;;1.40;;
3070;SDS011;1546;47.208;9.038;2022-09-28T02:25:08;3.30;;;1.27;;
3070;SDS011;1546;47.208;9.038;2022-09-28T02:27:38;2.80;;;1.02;;
3070;SDS011;1546;47.208;9.038;2022-09-28T02:30:10;9.45;;;1.75;;
3070;SDS011;1546;47.208;9.038;2022-09-28T02:32:38;2.90;;;1.20;;
3070;SDS011;1546;47.208;9.038;2022-09-28T02:35:08;3.65;;;1.42;;
3070;SDS011;1546;47.208;9.038;2022-09-28T02:37:37;2.65;;;1.17;;
3070;SDS011;1546;47.208;9.038;2022-09-28T02:40:10;2.95;;;1.27;;
3070;SDS011;1546;47.208;9.038;2022-09-28T02:42:41;4.63;;;1.35;;
3070;SDS011;1546;47.208;9.038;2022-09-28T02:45:20;3.00;;;1.10;;
3070;SDS011;1546;47.208;9.038;2022-09-28T02:47:55;2.97;;;1.52;;
3070;SDS011;1546;47.208;9.038;2022-09-28T02:50:34;4.57;;;1.20;;
3070;SDS011;1546;47.208;9.038;2022-09-28T02:56:34;2.95;;;1.30;;
3070;SDS011;1546;47.208;9.038;2022-09-28T02:59:20;2.90;;;1.20;;
3070;SDS011;1546;47.208;9.038;2022-09-28T03:02:02;3.90;;;1.42;;
3070;SDS011;1546;47.208;9.038;2022-09-28T03:04:36;3.95;;;1.55;;
3070;SDS011;1546;47.208;9.038;2022-09-28T03:07:09;5.57;;;1.60;;
3070;SDS011;1546;47.208;9.038;2022-09-28T03:09:41;3.60;;;1.30;;
3070;SDS011;1546;47.208;9.038;2022-09-28T03:12:15;4.07;;;1.60;;
3070;SDS011;1546;47.208;9.038;2022-09-28T03:14:47;4.07;;;1.60;;
3070;SDS011;1546;47.208;9.038;2022-09-28T03:17:30;3.25;;;1.45;;
3070;SDS011;1546;47.208;9.038;2022-09-28T03:19:57;3.05;;;1.73;;
3070;SDS011;1546;47.208;9.038;2022-09-28T03:22:23;4.18;;;2.70;;
3070;SDS011;1546;47.208;9.038;2022-09-28T03:24:50;4.70;;;2.30;;
3070;SDS011;1546;47.208;9.038;2022-09-28T03:27:17;3.88;;;2.20;;
3070;SDS011;1546;47.208;9.038;2022-09-28T03:29:44;3.30;;;1.80;;
3070;SDS011;1546;47.208;9.038;2022-09-28T03:32:12;4.80;;;2.17;;
3070;SDS011;1546;47.208;9.038;2022-09-28T03:34:39;6.40;;;2.85;;
3070;SDS011;1546;47.208;9.038;2022-09-28T03:37:06;3.83;;;2.60;;
3070;SDS011;1546;47.208;9.038;2022-09-28T03:39:33;4.35;;;2.40;;
3070;SDS011;1546;47.208;9.038;2022-09-28T03:42:00;5.13;;;2.60;;
3070;SDS011;1546;47.208;9.038;2022-09-28T03:44:27;4.22;;;2.78;;
3070;SDS011;1546;47.208;9.038;2022-09-28T03:46:54;3.70;;;2.60;;
3070;SDS011;1546;47.208;9.038;2022-09-28T03:49:22;4.35;;;2.25;;
3070;SDS011;1546;47.208;9.038;2022-09-28T03:51:49;5.88;;;3.00;;
3070;SDS011;1546;47.208;9.038;2022-09-28T03:54:15;4.53;;;3.10;;
3070;SDS011;1546;47.208;9.038;2022-09-28T03:56:43;5.40;;;3.25;;
3070;SDS011;1546;47.208;9.038;2022-09-28T03:59:09;4.07;;;2.60;;
3070;SDS011;1546;47.208;9.038;2022-09-28T04:01:36;4.18;;;3.35;;
3070;SDS011;1546;47.208;9.038;2022-09-28T04:04:03;4.00;;;2.60;;
3070;SDS011;1546;47.208;9.038;2022-09-28T04:06:31;4.45;;;2.70;;
3070;SDS011;1546;47.208;9.038;2022-09-28T04:08:58;6.57;;;3.28;;
3070;SDS011;1546;47.208;9.038;2022-09-28T04:11:25;4.13;;;2.90;;
3070;SDS011;1546;47.208;9.038;2022-09-28T04:13:52;4.43;;;2.75;;
3070;SDS011;1546;47.208;9.038;2022-09-28T04:16:18;8.20;;;4.95;;
3070;SDS011;1546;47.208;9.038;2022-09-28T04:18:45;5.45;;;4.00;;
3070;SDS011;1546;47.208;9.038;2022-09-28T04:21:13;5.90;;;4.05;;
3070;SDS011;1546;47.208;9.038;2022-09-28T04:23:42;7.95;;;5.20;;
3070;SDS011;1546;47.208;9.038;2022-09-28T04:26:12;5.13;;;3.20;;
3070;SDS011;1546;47.208;9.038;2022-09-28T04:28:41;4.20;;;3.03;;
3070;SDS011;1546;47.208;9.038;2022-09-28T04:31:26;5.30;;;3.15;;
3070;SDS011;1546;47.208;9.038;2022-09-28T04:33:53;5.10;;;3.65;;
3070;SDS011;1546;47.208;9.038;2022-09-28T04:36:21;6.93;;;3.35;;
3070;SDS011;1546;47.208;9.038;2022-09-28T04:38:50;4.05;;;3.03;;
3070;SDS011;1546;47.208;9.038;2022-09-28T04:41:17;5.50;;;3.28;;
3070;SDS011;1546;47.208;9.038;2022-09-28T04:43:46;4.00;;;3.03;;
3070;SDS011;1546;47.208;9.038;2022-09-28T04:46:13;4.90;;;3.08;;
3070;SDS011;1546;47.208;9.038;2022-09-28T04:48:40;6.05;;;3.83;;
3070;SDS011;1546;47.208;9.038;2022-09-28T04:51:06;7.00;;;4.22;;
3070;SDS011;1546;47.208;9.038;2022-09-28T04:53:33;4.60;;;2.88;;
3070;SDS011;1546;47.208;9.038;2022-09-28T04:56:03;5.68;;;3.35;;
3070;SDS011;1546;47.208;9.038;2022-09-28T04:58:32;6.35;;;4.40;;
3070;SDS011;1546;47.208;9.038;2022-09-28T05:01:00;4.80;;;3.78;;
3070;SDS011;1546;47.208;9.038;2022-09-28T05:03:29;7.70;;;4.35;;
3070;SDS011;1546;47.208;9.038;2022-09-28T05:05:56;8.25;;;4.35;;
3070;SDS011;1546;47.208;9.038;2022-09-28T05:08:23;5.70;;;3.75;;
3070;SDS011;1546;47.208;9.038;2022-09-28T05:10:55;5.93;;;4.45;;
3070;SDS011;1546;47.208;9.038;2022-09-28T05:13:25;9.02;;;4.25;;
3070;SDS011;1546;47.208;9.038;2022-09-28T05:15:53;12.52;;;5.63;;
3070;SDS011;1546;47.208;9.038;2022-09-28T05:18:20;6.63;;;5.10;;
3070;SDS011;1546;47.208;9.038;2022-09-28T05:20:48;8.70;;;5.53;;
3070;SDS011;1546;47.208;9.038;2022-09-28T05:23:15;9.02;;;5.03;;
3070;SDS011;1546;47.208;9.038;2022-09-28T05:25:42;16.00;;;6.70;;
3070;SDS011;1546;47.208;9.038;2022-09-28T05:28:10;7.15;;;4.57;;
3070;SDS011;1546;47.208;9.038;2022-09-28T05:30:39;8.15;;;5.47;;
3070;SDS011;1546;47.208;9.038;2022-09-28T05:33:06;10.75;;;6.45;;
3070;SDS011;1546;47.208;9.038;2022-09-28T05:35:33;21.10;;;7.00;;
3070;SDS011;1546;47.208;9.038;2022-09-28T05:38:01;7.45;;;4.70;;
3070;SDS011;1546;47.208;9.038;2022-09-28T05:40:29;6.97;;;5.07;;
3070;SDS011;1546;47.208;9.038;2022-09-28T05:42:57;6.15;;;4.13;;
3070;SDS011;1546;47.208;9.038;2022-09-28T05:45:25;6.43;;;5.15;;
3070;SDS011;1546;47.208;9.038;2022-09-28T05:47:54;6.05;;;4.25;;
3070;SDS011;1546;47.208;9.038;2022-09-28T05:50:21;6.22;;;3.80;;
3070;SDS011;1546;47.208;9.038;2022-09-28T05:52:55;5.28;;;3.95;;
3070;SDS011;1546;47.208;9.038;2022-09-28T05:55:23;4.95;;;3.90;;
3070;SDS011;1546;47.208;9.038;2022-09-28T05:57:50;7.00;;;4.05;;
3070;SDS011;1546;47.208;9.038;2022-09-28T06:00:17;5.95;;;3.63;;
3070;SDS011;1546;47.208;9.038;2022-09-28T06:02:44;5.75;;;3.30;;
3070;SDS011;1546;47.208;9.038;2022-09-28T06:05:22;4.20;;;2.60;;
3070;SDS011;1546;47.208;9.038;2022-09-28T06:07:49;4.47;;;2.72;;
3070;SDS011;1546;47.208;9.038;2022-09-28T06:10:15;4.75;;;2.35;;
3070;SDS011;1546;47.208;9.038;2022-09-28T06:12:42;5.63;;;2.75;;
3070;SDS011;1546;47.208;9.038;2022-09-28T06:15:11;4.55;;;2.50;;
3070;SDS011;1546;47.208;9.038;2022-09-28T06:17:38;5.15;;;3.45;;
3070;SDS011;1546;47.208;9.038;2022-09-28T06:20:09;4.25;;;2.78;;
3070;SDS011;1546;47.208;9.038;2022-09-28T06:22:36;4.50;;;2.85;;
3070;SDS011;1546;47.208;9.038;2022-09-28T06:25:03;4.50;;;2.90;;
3070;SDS011;1546;47.208;9.038;2022-09-28T06:27:31;4.38;;;2.88;;
3070;SDS011;1546;47.208;9.038;2022-09-28T06:29:58;4.32;;;2.55;;
3070;SDS011;1546;47.208;9.038;2022-09-28T06:32:26;3.95;;;2.47;;
3070;SDS011;1546;47.208;9.038;2022-09-28T06:34:54;5.60;;;2.45;;
3070;SDS011;1546;47.208;9.038;2022-09-28T06:37:22;4.25;;;3.15;;
3070;SDS011;1546;47.208;9.038;2022-09-28T06:39:50;3.20;;;2.40;;
3070;SDS011;1546;47.208;9.038;2022-09-28T06:42:17;4.35;;;2.50;;
3070;SDS011;1546;47.208;9.038;2022-09-28T06:44:47;3.55;;;2.30;;
3070;SDS011;1546;47.208;9.038;2022-09-28T06:47:14;3.60;;;2.78;;
3070;SDS011;1546;47.208;9.038;2022-09-28T06:49:41;4.20;;;3.22;;
3070;SDS011;1546;47.208;9.038;2022-09-28T06:52:10;4.65;;;3.40;;
3070;SDS011;1546;47.208;9.038;2022-09-28T06:54:38;3.30;;;2.90;;
3070;SDS011;1546;47.208;9.038;2022-09-28T06:57:05;4.63;;;2.30;;
3070;SDS011;1546;47.208;9.038;2022-09-28T06:59:32;3.80;;;3.08;;
3070;SDS011;1546;47.208;9.038;2022-09-28T07:01:58;4.10;;;3.15;;
3070;SDS011;1546;47.208;9.038;2022-09-28T07:04:25;4.68;;;3.25;;
3070;SDS011;1546;47.208;9.038;2022-09-28T07:06:52;3.08;;;2.15;;
3070;SDS011;1546;47.208;9.038;2022-09-28T07:09:19;3.42;;;1.95;;
3070;SDS011;1546;47.208;9.038;2022-09-28T07:11:47;4.32;;;2.20;;
3070;SDS011;1546;47.208;9.038;2022-09-28T07:14:14;3.33;;;1.92;;
3070;SDS011;1546;47.208;9.038;2022-09-28T07:16:41;4.28;;;2.30;;
3070;SDS011;1546;47.208;9.038;2022-09-28T07:19:07;5.72;;;2.35;;
3070;SDS011;1546;47.208;9.038;2022-09-28T07:21:34;3.20;;;1.90;;
3070;SDS011;1546;47.208;9.038;2022-09-28T07:24:01;2.95;;;1.95;;
3070;SDS011;1546;47.208;9.038;2022-09-28T07:26:29;4.80;;;1.80;;
3070;SDS011;1546;47.208;9.038;2022-09-28T07:28:59;5.78;;;1.88;;
3070;SDS011;1546;47.208;9.038;2022-09-28T07:31:25;5.97;;;1.60;;
3070;SDS011;1546;47.208;9.038;2022-09-28T07:33:54;3.22;;;1.80;;
3070;SDS011;1546;47.208;9.038;2022-09-28T07:36:22;2.90;;;1.50;;
3070;SDS011;1546;47.208;9.038;2022-09-28T07:38:49;3.17;;;1.95;;
3070;SDS011;1546;47.208;9.038;2022-09-28T07:41:16;3.13;;;1.63;;
3070;SDS011;1546;47.208;9.038;2022-09-28T07:43:46;3.00;;;1.20;;
3070;SDS011;1546;47.208;9.038;2022-09-28T07:46:15;3.00;;;1.52;;
3070;SDS011;1546;47.208;9.038;2022-09-28T07:48:42;4.00;;;1.60;;
3070;SDS011;1546;47.208;9.038;2022-09-28T07:51:09;2.95;;;1.42;;
3070;SDS011;1546;47.208;9.038;2022-09-28T07:53:36;3.65;;;1.70;;
3070;SDS011;1546;47.208;9.038;2022-09-28T07:56:03;3.20;;;2.00;;
3070;SDS011;1546;47.208;9.038;2022-09-28T07:58:31;3.40;;;1.80;;
3070;SDS011;1546;47.208;9.038;2022-09-28T08:00:58;3.28;;;1.77;;
3070;SDS011;1546;47.208;9.038;2022-09-28T08:03:30;3.22;;;2.15;;
3070;SDS011;1546;47.208;9.038;2022-09-28T08:05:57;3.40;;;1.83;;
3070;SDS011;1546;47.208;9.038;2022-09-28T08:08:24;3.20;;;2.42;;
3070;SDS011;1546;47.208;9.038;2022-09-28T08:10:51;15.32;;;4.45;;
3070;SDS011;1546;47.208;9.038;2022-09-28T08:13:19;3.65;;;2.80;;
3070;SDS011;1546;47.208;9.038;2022-09-28T08:15:49;11.57;;;5.22;;
3070;SDS011;1546;47.208;9.038;2022-09-28T08:18:16;13.35;;;2.72;;
3070;SDS011;1546;47.208;9.038;2022-09-28T08:20:45;3.20;;;2.00;;
3070;SDS011;1546;47.208;9.038;2022-09-28T08:23:30;3.55;;;2.10;;
3070;SDS011;1546;47.208;9.038;2022-09-28T08:25:57;2.97;;;1.52;;
3070;SDS011;1546;47.208;9.038;2022-09-28T08:28:24;3.15;;;2.03;;
3070;SDS011;1546;47.208;9.038;2022-09-28T08:30:50;3.72;;;2.00;;
3070;SDS011;1546;47.208;9.038;2022-09-28T08:33:18;3.35;;;1.50;;
3070;SDS011;1546;47.208;9.038;2022-09-28T08:35:53;7.03;;;2.00;;
3070;SDS011;1546;47.208;9.038;2022-09-28T08:38:21;3.35;;;1.90;;
3070;SDS011;1546;47.208;9.038;2022-09-28T08:40:49;3.00;;;1.60;;
3070;SDS011;1546;47.208;9.038;2022-09-28T08:43:31;4.68;;;1.83;;
3070;SDS011;1546;47.208;9.038;2022-09-28T08:46:20;4.07;;;2.10;;
3070;SDS011;1546;47.208;9.038;2022-09-28T08:48:50;4.40;;;1.70;;
3070;SDS011;1546;47.208;9.038;2022-09-28T08:51:21;4.65;;;1.75;;
3070;SDS011;1546;47.208;9.038;2022-09-28T08:53:52;3.55;;;2.00;;
3070;SDS011;1546;47.208;9.038;2022-09-28T08:56:28;4.20;;;2.15;;
3070;SDS011;1546;47.208;9.038;2022-09-28T08:59:03;6.43;;;3.03;;
3070;SDS011;1546;47.208;9.038;2022-09-28T09:01:38;4.82;;;2.78;;
3070;SDS011;1546;47.208;9.038;2022-09-28T09:04:09;2.90;;;2.20;;
3070;SDS011;1546;47.208;9.038;2022-09-28T09:06:43;14.05;;;2.78;;
3070;SDS011;1546;47.208;9.038;2022-09-28T09:09:41;5.95;;;2.35;;
3070;SDS011;1546;47.208;9.038;2022-09-28T09:12:17;5.75;;;2.20;;
3070;SDS011;1546;47.208;9.038;2022-09-28T09:17:52;3.53;;;2.38;;
3070;SDS011;1546;47.208;9.038;2022-09-28T09:20:32;3.90;;;2.97;;
3070;SDS011;1546;47.208;9.038;2022-09-28T09:23:09;3.83;;;3.13;;
3070;SDS011;1546;47.208;9.038;2022-09-28T09:25:45;2.95;;;2.65;;
3070;SDS011;1546;47.208;9.038;2022-09-28T09:31:06;3.90;;;2.00;;
3070;SDS011;1546;47.208;9.038;2022-09-28T09:33:41;3.70;;;2.10;;
3070;SDS011;1546;47.208;9.038;2022-09-28T09:36:32;3.25;;;2.20;;
3070;SDS011;1546;47.208;9.038;2022-09-28T09:39:12;4.63;;;3.50;;
3070;SDS011;1546;47.208;9.038;2022-09-28T09:41:54;5.35;;;4.03;;
3070;SDS011;1546;47.208;9.038;2022-09-28T09:44:39;6.57;;;3.40;;
3070;SDS011;1546;47.208;9.038;2022-09-28T09:47:28;3.72;;;3.03;;
3070;SDS011;1546;47.208;9.038;2022-09-28T09:49:58;4.70;;;4.13;;
3070;SDS011;1546;47.208;9.038;2022-09-28T09:52:31;4.50;;;4.10;;
3070;SDS011;1546;47.208;9.038;2022-09-28T09:55:12;6.38;;;5.93;;
3070;SDS011;1546;47.208;9.038;2022-09-28T09:57:42;6.40;;;5.90;;
3070;SDS011;1546;47.208;9.038;2022-09-28T10:00:15;4.88;;;3.70;;
3070;SDS011;1546;47.208;9.038;2022-09-28T10:02:43;4.53;;;4.00;;
3070;SDS011;1546;47.208;9.038;2022-09-28T10:05:16;8.98;;;5.55;;
3070;SDS011;1546;47.208;9.038;2022-09-28T10:07:49;3.53;;;2.53;;
3070;SDS011;1546;47.208;9.038;2022-09-28T10:10:22;3.10;;;2.30;;
3070;SDS011;1546;47.208;9.038;2022-09-28T10:12:52;3.67;;;2.22;;
3070;SDS011;1546;47.208;9.038;2022-09-28T10:15:21;3.15;;;2.40;;
3070;SDS011;1546;47.208;9.038;2022-09-28T10:17:49;3.08;;;2.20;;
3070;SDS011;1546;47.208;9.038;2022-09-28T10:20:17;3.90;;;2.65;;
3070;SDS011;1546;47.208;9.038;2022-09-28T10:22:44;3.72;;;2.92;;
3070;SDS011;1546;47.208;9.038;2022-09-28T10:25:11;9.07;;;6.60;;
3070;SDS011;1546;47.208;9.038;2022-09-28T10:27:41;14.27;;;11.55;;
3070;SDS011;1546;47.208;9.038;2022-09-28T10:30:12;11.75;;;10.55;;
3070;SDS011;1546;47.208;9.038;2022-09-28T10:32:42;3.25;;;2.00;;
3070;SDS011;1546;47.208;9.038;2022-09-28T10:35:20;4.72;;;2.85;;
3070;SDS011;1546;47.208;9.038;2022-09-28T10:37:49;3.10;;;1.92;;
3070;SDS011;1546;47.208;9.038;2022-09-28T10:40:26;9.65;;;6.75;;
3070;SDS011;1546;47.208;9.038;2022-09-28T10:43:04;14.10;;;8.43;;
3070;SDS011;1546;47.208;9.038;2022-09-28T10:45:33;4.97;;;3.05;;
3070;SDS011;1546;47.208;9.038;2022-09-28T10:48:03;2.78;;;1.42;;
3070;SDS011;1546;47.208;9.038;2022-09-28T10:50:32;3.15;;;1.40;;
3070;SDS011;1546;47.208;9.038;2022-09-28T10:53:15;3.30;;;1.45;;
3070;SDS011;1546;47.208;9.038;2022-09-28T10:55:54;3.15;;;1.80;;
3070;SDS011;1546;47.208;9.038;2022-09-28T10:58:25;3.10;;;1.83;;
3070;SDS011;1546;47.208;9.038;2022-09-28T11:00:58;2.95;;;1.67;;
3070;SDS011;1546;47.208;9.038;2022-09-28T11:03:30;3.22;;;2.00;;
3070;SDS011;1546;47.208;9.038;2022-09-28T11:05:58;2.80;;;1.52;;
3070;SDS011;1546;47.208;9.038;2022-09-28T11:08:28;2.90;;;1.70;;
3070;SDS011;1546;47.208;9.038;2022-09-28T11:11:05;4.38;;;3.10;;
3070;SDS011;1546;47.208;9.038;2022-09-28T11:13:39;3.00;;;2.20;;
3070;SDS011;1546;47.208;9.038;2022-09-28T11:16:08;3.75;;;2.28;;
3070;SDS011;1546;47.208;9.038;2022-09-28T11:18:52;3.50;;;2.08;;
3070;SDS011;1546;47.208;9.038;2022-09-28T11:21:23;3.42;;;2.10;;
3070;SDS011;1546;47.208;9.038;2022-09-28T11:23:59;10.60;;;3.17;;
3070;SDS011;1546;47.208;9.038;2022-09-28T11:26:36;3.50;;;1.90;;
3070;SDS011;1546;47.208;9.038;2022-09-28T11:29:17;3.90;;;1.90;;
3070;SDS011;1546;47.208;9.038;2022-09-28T11:31:48;3.60;;;1.65;;
3070;SDS011;1546;47.208;9.038;2022-09-28T11:34:19;4.15;;;1.80;;
3070;SDS011;1546;47.208;9.038;2022-09-28T11:36:52;3.17;;;1.48;;
3070;SDS011;1546;47.208;9.038;2022-09-28T11:39:32;3.47;;;1.33;;
3070;SDS011;1546;47.208;9.038;2022-09-28T11:42:11;2.80;;;1.20;;
3070;SDS011;1546;47.208;9.038;2022-09-28T11:44:49;4.30;;;1.60;;
3070;SDS011;1546;47.208;9.038;2022-09-28T11:47:36;3.30;;;1.30;;
3070;SDS011;1546;47.208;9.038;2022-09-28T11:50:21;11.65;;;1.80;;
3070;SDS011;1546;47.208;9.038;2022-09-28T11:52:55;3.10;;;1.20;;
3070;SDS011;1546;47.208;9.038;2022-09-28T11:55:30;3.05;;;1.20;;
3070;SDS011;1546;47.208;9.038;2022-09-28T11:58:02;2.75;;;1.10;;
3070;SDS011;1546;47.208;9.038;2022-09-28T12:00:36;2.85;;;1.55;;
3070;SDS011;1546;47.208;9.038;2022-09-28T12:03:09;3.08;;;1.25;;
3070;SDS011;1546;47.208;9.038;2022-09-28T12:05:40;4.32;;;1.35;;
3070;SDS011;1546;47.208;9.038;2022-09-28T12:08:12;3.00;;;1.20;;
3070;SDS011;1546;47.208;9.038;2022-09-28T12:10:44;3.22;;;1.30;;
3070;SDS011;1546;47.208;9.038;2022-09-28T12:13:17;2.95;;;1.10;;
3070;SDS011;1546;47.208;9.038;2022-09-28T12:15:49;3.05;;;1.13;;
3070;SDS011;1546;47.208;9.038;2022-09-28T12:18:21;3.03;;;0.90;;
3070;SDS011;1546;47.208;9.038;2022-09-28T12:20:51;3.08;;;1.10;;
3070;SDS011;1546;47.208;9.038;2022-09-28T12:23:24;4.82;;;1.90;;
3070;SDS011;1546;47.208;9.038;2022-09-28T12:25:59;3.40;;;1.35;;
3070;SDS011;1546;47.208;9.038;2022-09-28T12:28:30;2.70;;;1.00;;
3070;SDS011;1546;47.208;9.038;2022-09-28T12:31:08;3.35;;;1.00;;
3070;SDS011;1546;47.208;9.038;2022-09-28T12:33:41;3.95;;;1.02;;
3070;SDS011;1546;47.208;9.038;2022-09-28T12:36:15;2.70;;;0.85;;
3070;SDS011;1546;47.208;9.038;2022-09-28T12:38:58;2.92;;;0.90;;
3070;SDS011;1546;47.208;9.038;2022-09-28T12:41:38;2.50;;;0.82;;
3070;SDS011;1546;47.208;9.038;2022-09-28T12:44:23;2.50;;;0.95;;
3070;SDS011;1546;47.208;9.038;2022-09-28T12:47:07;2.90;;;1.15;;
3070;SDS011;1546;47.208;9.038;2022-09-28T12:49:54;3.20;;;1.20;;
3070;SDS011;1546;47.208;9.038;2022-09-28T12:52:34;3.55;;;1.33;;
3070;SDS011;1546;47.208;9.038;2022-09-28T12:55:11;2.78;;;1.23;;
3070;SDS011;1546;47.208;9.038;2022-09-28T12:57:48;3.78;;;1.27;;
3070;SDS011;1546;47.208;9.038;2022-09-28T13:00:25;4.97;;;1.17;;
3070;SDS011;1546;47.208;9.038;2022-09-28T13:03:03;2.85;;;1.00;;
3070;SDS011;1546;47.208;9.038;2022-09-28T13:05:53;2.80;;;0.90;;
3070;SDS011;1546;47.208;9.038;2022-09-28T13:08:34;3.08;;;1.38;;
3070;SDS011;1546;47.208;9.038;2022-09-28T13:11:07;2.83;;;0.93;;
3070;SDS011;1546;47.208;9.038;2022-09-28T13:13:44;3.00;;;1.20;;
3070;SDS011;1546;47.208;9.038;2022-09-28T13:16:16;2.67;;;0.85;;
3070;SDS011;1546;47.208;9.038;2022-09-28T13:18:51;5.35;;;1.17;;
3070;SDS011;1546;47.208;9.038;2022-09-28T13:21:25;3.22;;;1.30;;
3070;SDS011;1546;47.208;9.038;2022-09-28T13:23:57;3.00;;;1.00;;
3070;SDS011;1546;47.208;9.038;2022-09-28T13:26:29;2.70;;;1.05;;
3070;SDS011;1546;47.208;9.038;2022-09-28T13:29:00;4.30;;;1.52;;
3070;SDS011;1546;47.208;9.038;2022-09-28T13:31:28;2.75;;;1.17;;
3070;SDS011;1546;47.208;9.038;2022-09-28T13:33:59;3.42;;;1.20;;
3070;SDS011;1546;47.208;9.038;2022-09-28T13:36:38;2.50;;;0.80;;
3070;SDS011;1546;47.208;9.038;2022-09-28T13:42:20;2.78;;;0.90;;
3070;SDS011;1546;47.208;9.038;2022-09-28T13:50:41;5.25;;;1.83;;
3070;SDS011;1546;47.208;9.038;2022-09-28T13:53:24;3.40;;;1.30;;
3070;SDS011;1546;47.208;9.038;2022-09-28T13:55:58;2.80;;;0.90;;
3070;SDS011;1546;47.208;9.038;2022-09-28T13:58:29;3.00;;;1.10;;
3070;SDS011;1546;47.208;9.038;2022-09-28T14:01:02;2.75;;;0.80;;
3070;SDS011;1546;47.208;9.038;2022-09-28T14:03:43;3.50;;;1.23;;
3070;SDS011;1546;47.208;9.038;2022-09-28T14:06:21;4.05;;;1.10;;
3070;SDS011;1546;47.208;9.038;2022-09-28T14:09:07;5.22;;;1.40;;
3070;SDS011;1546;47.208;9.038;2022-09-28T14:11:58;2.50;;;0.80;;
3070;SDS011;1546;47.208;9.038;2022-09-28T14:14:27;3.47;;;0.80;;
3070;SDS011;1546;47.208;9.038;2022-09-28T14:20:14;3.13;;;1.00;;
3070;SDS011;1546;47.208;9.038;2022-09-28T14:22:46;3.70;;;1.00;;
3070;SDS011;1546;47.208;9.038;2022-09-28T14:25:25;2.60;;;0.90;;
3070;SDS011;1546;47.208;9.038;2022-09-28T14:27:59;2.90;;;0.80;;
3070;SDS011;1546;47.208;9.038;2022-09-28T14:30:42;2.75;;;0.90;;
3070;SDS011;1546;47.208;9.038;2022-09-28T14:33:16;3.70;;;1.20;;
3070;SDS011;1546;47.208;9.038;2022-09-28T14:35:50;2.38;;;0.77;;
3070;SDS011;1546;47.208;9.038;2022-09-28T14:38:22;2.90;;;1.02;;
3070;SDS011;1546;47.208;9.038;2022-09-28T14:41:29;2.60;;;0.90;;
3070;SDS011;1546;47.208;9.038;2022-09-28T14:43:59;3.13;;;0.73;;
3070;SDS011;1546;47.208;9.038;2022-09-28T14:46:29;2.75;;;0.98;;
3070;SDS011;1546;47.208;9.038;2022-09-28T14:49:01;2.60;;;1.10;;
3070;SDS011;1546;47.208;9.038;2022-09-28T14:51:43;3.25;;;1.40;;
3070;SDS011;1546;47.208;9.038;2022-09-28T14:54:40;3.97;;;1.48;;
3070;SDS011;1546;47.208;9.038;2022-09-28T14:57:17;2.90;;;1.88;;
3070;SDS011;1546;47.208;9.038;2022-09-28T14:59:46;5.22;;;4.32;;
3070;SDS011;1546;47.208;9.038;2022-09-28T15:02:23;5.00;;;2.00;;
3070;SDS011;1546;47.208;9.038;2022-09-28T15:04:54;4.70;;;3.33;;
3070;SDS011;1546;47.208;9.038;2022-09-28T15:07:24;4.60;;;3.13;;
3070;SDS011;1546;47.208;9.038;2022-09-28T15:09:55;3.72;;;1.48;;
3070;SDS011;1546;47.208;9.038;2022-09-28T15:12:26;3.80;;;1.70;;
3070;SDS011;1546;47.208;9.038;2022-09-28T15:14:56;3.65;;;2.28;;
3070;SDS011;1546;47.208;9.038;2022-09-28T15:17:26;3.25;;;1.00;;
3070;SDS011;1546;47.208;9.038;2022-09-28T15:20:01;2.83;;;0.93;;
3070;SDS011;1546;47.208;9.038;2022-09-28T15:22:37;4.75;;;1.38;;
3070;SDS011;1546;47.208;9.038;2022-09-28T15:25:13;4.40;;;1.00;;
3070;SDS011;1546;47.208;9.038;2022-09-28T15:27:45;2.80;;;1.23;;
3070;SDS011;1546;47.208;9.038;2022-09-28T15:30:18;3.03;;;1.48;;
3070;SDS011;1546;47.208;9.038;2022-09-28T15:32:56;3.53;;;1.30;;
3070;SDS011;1546;47.208;9.038;2022-09-28T15:35:46;4.55;;;2.00;;
3070;SDS011;1546;47.208;9.038;2022-09-28T15:38:14;2.35;;;0.88;;
3070;SDS011;1546;47.208;9.038;2022-09-28T15:40:43;4.68;;;1.30;;
3070;SDS011;1546;47.208;9.038;2022-09-28T15:43:19;4.93;;;1.27;;
3070;SDS011;1546;47.208;9.038;2022-09-28T15:45:54;3.85;;;1.30;;
3070;SDS011;1546;47.208;9.038;2022-09-28T15:48:27;3.70;;;1.80;;
3070;SDS011;1546;47.208;9.038;2022-09-28T15:50:57;10.95;;;5.57;;
3070;SDS011;1546;47.208;9.038;2022-09-28T15:53:34;5.38;;;1.58;;
3070;SDS011;1546;47.208;9.038;2022-09-28T15:56:03;4.88;;;2.15;;
3070;SDS011;1546;47.208;9.038;2022-09-28T15:58:34;4.25;;;1.38;;
3070;SDS011;1546;47.208;9.038;2022-09-28T16:01:20;3.35;;;1.73;;
3070;SDS011;1546;47.208;9.038;2022-09-28T16:03:59;22.45;;;4.43;;
3070;SDS011;1546;47.208;9.038;2022-09-28T16:07:03;6.60;;;3.13;;